Time;durP1;ratioP1;P1;durP2;ratioP2;P2;SDS_P1;SDS_P2;PMS_P1;PMS_P2;Temp;Humidity;BMP_temperature;BMP_pressure;BME280_temperature;BME280_humidity;BME280_pressure;Samples;Min_cycle;Max_cycle;Signal;HPM_P1;HPM_P2
2024/01/10 05:01:25;;;;;;;25.70;7.90;;;;;;;-5.78;100.00;67849.94;5397830;28;20123;-82
2024/01/10 05:04:28;;;;;;;16.20;7.68;;;;;;;-5.78;100.00;67849.94;5344941;33;34479;-82
2024/01/10 05:07:30;;;;;;;24.87;9.95;;;;;;;-5.71;100.00;67857.97;5329935;33;34619;-82
2024/01/10 05:10:33;;;;;;;19.45;7.60;;;;;;;-5.68;100.00;67858.22;5341992;33;34657;-83
2024/01/10 05:13:36;;;;;;;20.50;8.82;;;;;;;-5.63;100.00;67863.38;5341869;33;34464;-82
2024/01/10 05:16:39;;;;;;;17.83;8.32;;;;;;;-5.58;100.00;67872.28;5341859;33;33925;-82
2024/01/10 05:19:42;;;;;;;21.77;10.00;;;;;;;-5.57;100.00;67872.84;5329922;33;33960;-83
2024/01/10 05:22:46;;;;;;;17.75;8.38;;;;;;;-5.63;100.00;67863.94;5343040;33;34528;-83
2024/01/10 05:25:49;;;;;;;16.37;7.90;;;;;;;-5.74;100.00;67851.94;5329819;33;33842;-83
2024/01/10 05:28:52;;;;;;;16.58;8.57;;;;;;;-5.66;100.00;67865.72;5344102;33;33882;-82
2024/01/10 05:31:55;;;;;;;19.52;7.85;;;;;;;-5.72;100.00;67853.66;5342436;33;34507;-83
2024/01/10 05:34:58;;;;;;;18.30;7.43;;;;;;;-5.68;100.00;67917.47;5344777;33;34403;-82
2024/01/10 05:38:05;;;;;;;19.58;8.32;;;;;;;-5.72;100.00;67911.44;5355418;33;33504;-82
2024/01/10 05:41:09;;;;;;;13.32;7.00;;;;;;;-5.62;100.00;67867.13;5344857;33;34799;-82
2024/01/10 05:44:12;;;;;;;16.77;7.97;;;;;;;-5.60;100.00;67866.81;5345889;33;33848;-82
2024/01/10 05:47:16;;;;;;;15.65;8.32;;;;;;;-5.69;100.00;67857.09;5331271;33;33835;-83
2024/01/10 05:50:19;;;;;;;15.63;7.85;;;;;;;-5.80;100.00;67901.69;5329756;33;33855;-83
2024/01/10 05:53:24;;;;;;;19.58;8.25;;;;;;;-5.86;100.00;67838.19;5329820;33;34471;-82
2024/01/10 05:56:27;;;;;;;10.77;7.15;;;;;;;-5.65;100.00;67861.09;5329532;33;34450;-86
2024/01/10 05:59:30;;;;;;;20.20;7.95;;;;;;;-5.72;100.00;67856.81;5329580;33;33305;-86
2024/01/10 06:02:33;;;;;;;16.40;7.37;;;;;;;-5.52;100.00;67875.97;5339894;33;35036;-86
2024/01/10 06:05:37;;;;;;;14.38;7.82;;;;;;;-5.49;100.00;67879.97;5329432;33;34315;-86
2024/01/10 06:08:40;;;;;;;17.30;7.85;;;;;;;-5.65;100.00;67918.31;5329680;33;34464;-83
2024/01/10 06:11:43;;;;;;;18.33;9.02;;;;;;;-5.80;100.00;67847.09;5317815;33;34430;-83
2024/01/10 06:14:46;;;;;;;16.77;6.47;;;;;;;-5.92;100.00;67833.94;5317899;33;33824;-82
2024/01/10 06:17:49;;;;;;;16.33;8.30;;;;;;;-6.00;100.00;67819.59;5315601;33;33836;-83
2024/01/10 06:20:53;;;;;;;12.70;7.95;;;;;;;-6.07;100.00;67814.75;5311457;33;34556;-83
2024/01/10 06:23:56;;;;;;;15.30;8.38;;;;;;;-6.13;100.00;67810.50;5323273;33;33972;-82
2024/01/10 06:26:59;;;;;;;20.35;7.78;;;;;;;-6.04;100.00;67817.63;5328458;33;33490;-83
2024/01/10 06:30:03;;;;;;;15.25;7.65;;;;;;;-6.05;100.00;67816.47;5342772;33;34503;-83
2024/01/10 06:33:06;;;;;;;14.30;8.77;;;;;;;-5.87;100.00;67836.47;5327880;33;33556;-82
2024/01/10 06:36:10;;;;;;;19.85;9.15;;;;;;;-5.79;100.00;67846.22;5335582;33;34544;-82
2024/01/10 06:39:13;;;;;;;18.67;9.32;;;;;;;-5.77;100.00;67850.53;5329685;33;34108;-82
2024/01/10 06:42:16;;;;;;;22.73;8.15;;;;;;;-5.81;100.00;67846.53;5329319;33;33740;-82
2024/01/10 06:45:20;;;;;;;16.75;7.93;;;;;;;-5.83;100.00;67846.81;5328983;33;34011;-82
2024/01/10 06:48:23;;;;;;;15.52;9.07;;;;;;;-5.87;100.00;67837.06;5330345;33;33607;-82
2024/01/10 06:51:28;;;;;;;24.10;8.55;;;;;;;-5.74;100.00;67851.94;5336399;33;33849;-82
2024/01/10 06:54:32;;;;;;;22.15;9.70;;;;;;;-5.68;100.00;67858.22;5337340;33;34482;-82
2024/01/10 06:57:35;;;;;;;18.17;9.13;;;;;;;-5.69;100.00;67857.09;5335013;33;33423;-82
2024/01/10 07:00:39;;;;;;;23.65;7.95;;;;;;;-5.71;100.00;67912.59;5344893;33;33542;-82
2024/01/10 07:03:42;;;;;;;18.80;9.00;;;;;;;-5.59;100.00;67925.19;5344404;33;33904;-82
2024/01/10 07:06:46;;;;;;;20.17;8.27;;;;;;;-5.39;100.00;67892.91;5323779;33;33881;-82
2024/01/10 07:09:48;;;;;;;20.90;8.82;;;;;;;-5.23;100.00;67913.25;5335740;33;34031;-82
2024/01/10 07:12:52;;;;;;;14.93;7.82;;;;;;;-5.01;100.00;67939.03;5334564;33;33875;-82
2024/01/10 07:15:55;;;;;;;13.50;7.57;;;;;;;-4.84;100.00;67952.16;5334508;33;34498;-82
2024/01/10 07:18:59;;;;;;;15.82;8.60;;;;;;;-4.76;100.00;67963.94;5334426;33;34227;-82
2024/01/10 07:22:03;;;;;;;19.12;8.25;;;;;;;-4.75;100.00;68019.22;5322704;33;33515;-83
2024/01/10 07:25:07;;;;;;;15.70;7.97;;;;;;;-4.78;100.00;67964.22;5325607;33;34347;-82
2024/01/10 07:28:11;;;;;;;16.17;9.10;;;;;;;-4.67;100.00;67976.28;5335356;33;34142;-82
2024/01/10 07:31:14;;;;;;;19.20;8.82;;;;;;;-4.46;100.00;68052.47;5329062;33;33906;-82
2024/01/10 07:34:16;;;;;;;21.12;9.00;;;;;;;-4.37;100.00;68008.03;5314176;33;34246;-82
2024/01/10 07:37:20;;;;;;;16.73;8.98;;;;;;;-4.23;100.00;68020.34;5350555;33;33567;-82
2024/01/10 07:40:23;;;;;;;14.57;7.95;;;;;;;-4.05;100.00;68043.59;5343123;33;33756;-83
2024/01/10 07:43:27;;;;;;;18.70;9.18;;;;;;;-3.75;100.00;68077.44;5343202;33;33820;-83
2024/01/10 07:46:29;;;;;;;15.85;8.40;;;;;;;-3.69;100.00;68081.69;5344798;33;33601;-82
2024/01/10 07:49:32;;;;;;;20.20;8.25;;;;;;;-3.50;100.00;68102.94;5341700;33;33502;-83
2024/01/10 07:52:35;;;;;;;17.95;8.43;;;;;;;-3.31;100.00;68123.59;5349609;33;34718;-82
2024/01/10 07:55:39;;;;;;;14.87;7.60;;;;;;;-3.04;100.00;68159.81;5324329;33;34110;-82
2024/01/10 07:58:42;;;;;;;13.82;8.38;;;;;;;-2.72;100.00;68195.41;5323131;33;34292;-82
2024/01/10 08:01:58;;;;;;;13.57;7.53;;;;;;;-2.70;100.00;68197.69;5334285;33;33842;-82
2024/01/10 08:05:05;;;;;;;14.55;7.50;;;;;;;-2.77;100.00;68189.66;5321377;33;33833;-85
2024/01/10 08:08:09;;;;;;;21.25;9.88;;;;;;;-2.87;100.00;68175.56;5335434;33;34615;-86
2024/01/10 08:11:12;;;;;;;21.17;9.95;;;;;;;-2.82;100.00;68236.75;5342346;33;34322;-83
2024/01/10 08:14:16;;;;;;;22.30;8.70;;;;;;;-2.76;100.00;68190.78;5329747;33;33709;-83
2024/01/10 08:17:19;;;;;;;18.42;8.98;;;;;;;-2.55;100.00;68209.69;5342432;33;34653;-82
2024/01/10 08:20:23;;;;;;;20.90;10.43;;;;;;;-2.45;100.00;68280.19;5344490;33;33803;-82
2024/01/10 08:23:26;;;;;;;26.23;10.90;;;;;;;-2.43;100.00;68225.50;5345375;33;33943;-82
2024/01/10 08:26:30;;;;;;;23.17;11.20;;;;;;;-2.57;100.00;68264.91;5329714;33;33525;-82
2024/01/10 08:29:33;;;;;;;17.62;9.57;;;;;;;-2.27;100.00;68243.31;5322199;33;34539;-81
2024/01/10 08:32:36;;;;;;;21.27;10.77;;;;;;;-2.10;100.00;68317.22;5335289;33;35378;-82
2024/01/10 08:35:42;;;;;;;22.17;12.20;;;;;;;-2.19;100.00;68251.94;5328115;33;34239;-82
2024/01/10 08:38:45;;;;;;;21.67;11.55;;;;;;;-2.15;100.00;68254.47;5340195;33;33926;-82
2024/01/10 08:41:48;;;;;;;28.38;11.63;;;;;;;-1.99;100.00;68271.72;5329882;33;33391;-81
2024/01/10 08:44:53;;;;;;;17.58;11.32;;;;;;;-1.94;100.00;68278.03;5329053;33;33875;-82
2024/01/10 08:47:57;;;;;;;21.08;11.95;;;;;;;-1.77;100.00;68299.63;5343641;33;33941;-84
2024/01/10 08:51:00;;;;;;;26.25;13.70;;;;;;;-1.69;100.00;68306.19;5332223;33;33834;-84
2024/01/10 08:54:04;;;;;;;28.17;13.68;;;;;;;-1.49;100.00;68330.66;5326113;33;34871;-83
2024/01/10 08:57:07;;;;;;;25.17;12.40;;;;;;;-1.35;100.00;68344.13;5335674;33;33882;-86
2024/01/10 09:00:11;;;;;;;26.10;13.27;;;;;;;-1.47;100.00;68330.91;5314919;33;33521;-84
2024/01/10 09:03:17;;;;;;;24.83;13.85;;;;;;;-1.35;100.00;68344.13;5338832;33;34626;-84
2024/01/10 09:06:20;;;;;;;27.87;13.68;;;;;;;-1.27;100.00;68353.31;5338089;33;34547;-85
2024/01/10 09:09:23;;;;;;;29.80;14.30;;;;;;;-1.18;99.63;68365.72;5326202;33;34604;-85
2024/01/10 09:12:27;;;;;;;30.35;13.73;;;;;;;-0.96;98.96;68391.03;5341657;33;33537;-83
2024/01/10 09:15:33;;;;;;;28.60;15.07;;;;;;;-0.82;99.46;68405.97;5339651;33;34500;-83
2024/01/10 09:18:39;;;;;;;29.20;15.07;;;;;;;-0.91;97.68;68396.19;5327759;33;33444;-84
2024/01/10 09:21:42;;;;;;;31.30;15.05;;;;;;;-0.84;98.15;68403.69;5326278;33;33808;-84
2024/01/10 09:24:45;;;;;;;48.13;16.80;;;;;;;-0.81;96.45;68462.78;5342344;33;34815;-83
2024/01/10 09:27:51;;;;;;;27.27;13.40;;;;;;;-0.91;94.50;68396.19;5342313;33;33565;-84
2024/01/10 09:30:54;;;;;;;30.85;13.52;;;;;;;-0.81;91.26;68410.34;5343058;33;34211;-84
2024/01/10 09:33:57;;;;;;;24.70;13.88;;;;;;;-0.70;91.57;68419.81;5339530;33;34177;-84
2024/01/10 09:37:02;;;;;;;30.10;11.82;;;;;;;-0.57;91.80;68434.19;5342069;33;33947;-83
2024/01/10 09:40:08;;;;;;;28.25;12.85;;;;;;;-0.37;88.51;68459.81;5341789;33;33787;-84
2024/01/10 09:43:11;;;;;;;24.27;12.77;;;;;;;-0.31;86.51;68468.78;5330836;33;33637;-83
2024/01/10 09:46:17;;;;;;;24.87;12.80;;;;;;;-0.26;79.35;68467.22;5341787;33;33823;-83
2024/01/10 09:49:21;;;;;;;24.10;12.48;;;;;;;-0.41;79.52;68452.59;5341661;33;34779;-84
2024/01/10 09:52:27;;;;;;;24.30;12.57;;;;;;;-0.32;81.56;68462.94;5341096;33;34204;-84
2024/01/10 09:55:35;;;;;;;24.23;11.45;;;;;;;-0.32;79.14;68462.94;5353582;33;34104;-84
2024/01/10 09:58:39;;;;;;;26.30;12.15;;;;;;;-0.24;77.52;68529.31;5341800;33;34791;-87
2024/01/10 10:01:44;;;;;;;23.17;11.75;;;;;;;-0.20;77.07;68533.34;5341623;33;34579;-88
2024/01/10 10:05:03;;;;;;;23.42;12.15;;;;;;;-0.14;76.57;68540.84;5342772;33;34109;-85
2024/01/10 10:08:07;;;;;;;23.90;12.35;;;;;;;-0.12;73.36;68484.81;5342245;33;34559;-84
2024/01/10 10:11:14;;;;;;;25.15;11.77;;;;;;;-0.24;77.88;68474.75;5330731;33;33866;-84
2024/01/10 10:14:18;;;;;;;24.58;12.27;;;;;;;-0.08;74.08;68489.44;5342530;33;34519;-85
2024/01/10 10:17:24;;;;;;;20.35;10.75;;;;;;;-0.06;71.73;68491.72;5343058;33;34451;-84
2024/01/10 10:20:32;;;;;;;21.42;11.10;;;;;;;0.03;72.12;68502.09;5341038;33;34026;-85
2024/01/10 10:23:43;;;;;;;23.85;10.50;;;;;;;0.10;67.68;68509.56;5329679;33;33775;-84
2024/01/10 10:26:51;;;;;;;18.60;10.68;;;;;;;0.19;66.45;68517.88;5341594;33;34463;-84
2024/01/10 10:29:53;;;;;;;20.92;10.55;;;;;;;0.13;68.25;68513.59;5330006;33;34905;-84
2024/01/10 10:32:59;;;;;;;20.15;10.55;;;;;;;0.16;65.90;68571.63;5329851;33;34345;-85
2024/01/10 10:36:04;;;;;;;24.92;10.98;;;;;;;0.14;61.64;68514.16;5343129;33;34087;-84
2024/01/10 10:39:13;;;;;;;18.10;9.50;;;;;;;0.10;62.06;68509.56;5353636;33;33978;-84
2024/01/10 10:42:18;;;;;;;19.05;10.35;;;;;;;0.21;62.91;68522.81;5342653;33;34344;-84
2024/01/10 10:45:25;;;;;;;20.77;9.85;;;;;;;0.30;62.38;68532.03;5343641;33;34963;-84
2024/01/10 10:48:36;;;;;;;17.35;9.23;;;;;;;0.40;61.12;68598.72;5329498;33;34832;-85
2024/01/10 10:51:41;;;;;;;20.10;8.73;;;;;;;0.41;60.95;68545.28;5341086;33;34907;-84
2024/01/10 10:54:46;;;;;;;16.33;8.95;;;;;;;0.64;55.29;68567.97;5342256;33;33874;-84
2024/01/10 10:57:49;;;;;;;20.40;9.90;;;;;;;0.65;53.13;68572.34;5340845;33;34642;-84
2024/01/10 11:01:07;;;;;;;16.60;8.98;;;;;;;0.77;56.15;68585.00;5342568;33;33712;-84
2024/01/10 11:04:13;;;;;;;13.05;7.60;;;;;;;1.00;52.63;68616.78;5345926;33;33937;-84
2024/01/10 11:07:17;;;;;;;17.95;8.27;;;;;;;1.10;52.49;68619.81;5343541;33;35286;-84
2024/01/10 11:10:29;;;;;;;16.95;9.07;;;;;;;1.24;51.58;68638.03;5344354;33;34389;-88
2024/01/10 11:13:35;;;;;;;18.65;8.57;;;;;;;1.29;51.91;68644.38;5344905;33;33947;-84
2024/01/10 11:17:17;;;;;;;16.17;8.85;;;;;;;1.24;50.77;68640.66;5343186;33;34143;-84
2024/01/10 11:20:58;;;;;;;16.58;8.13;;;;;;;1.28;50.58;68645.25;5344168;33;34002;-84
2024/01/10 11:24:04;;;;;;;17.92;8.52;;;;;;;1.43;49.92;68662.53;5331594;33;34427;-84
2024/01/10 11:27:11;;;;;;;17.20;8.95;;;;;;;1.61;50.58;68682.16;5320047;33;34519;-84
2024/01/10 11:30:48;;;;;;;19.50;9.40;;;;;;;1.76;48.08;68694.75;5315307;33;35329;-84
2024/01/10 11:33:52;;;;;;;21.10;9.30;;;;;;;2.07;47.38;68789.38;5324853;33;33874;-84
2024/01/10 11:37:12;;;;;;;21.02;8.82;;;;;;;2.21;47.43;68747.56;5309594;33;34021;-84
2024/01/10 11:40:48;;;;;;;13.85;8.38;;;;;;;2.62;45.84;68794.28;5332206;33;35361;-88
2024/01/10 11:44:10;;;;;;;12.80;7.25;;;;;;;2.78;46.86;68814.84;5308349;33;34608;-84
2024/01/10 11:47:14;;;;;;;19.37;8.43;;;;;;;3.21;44.10;68860.69;5305502;33;33689;-84
2024/01/10 11:50:20;;;;;;;21.85;8.93;;;;;;;3.69;41.83;68914.97;5307327;33;33779;-84
2024/01/10 11:53:47;;;;;;;19.40;9.00;;;;;;;3.93;41.40;68942.13;5306586;33;33867;-84
2024/01/10 11:56:49;;;;;;;15.90;8.27;;;;;;;3.84;41.58;68932.31;5306018;33;34065;-84
2024/01/10 11:59:55;;;;;;;15.52;8.13;;;;;;;4.31;41.03;68988.09;5323932;33;33472;-84
2024/01/10 12:02:58;;;;;;;15.32;7.95;;;;;;;4.86;40.85;69049.97;5342453;33;33794;-83
2024/01/10 12:06:02;;;;;;;15.93;8.65;;;;;;;5.51;39.20;69176.41;5341730;33;34097;-84
2024/01/10 12:09:08;;;;;;;17.27;8.25;;;;;;;6.16;38.54;69196.94;5329058;33;33784;-84
2024/01/10 12:12:12;;;;;;;14.93;8.23;;;;;;;6.16;37.28;69199.03;5317136;33;33995;-84
2024/01/10 12:15:16;;;;;;;17.70;8.20;;;;;;;6.51;37.29;69239.56;5341728;33;33878;-84
2024/01/10 12:18:20;;;;;;;16.17;7.70;;;;;;;7.08;36.02;69305.94;5318225;33;33839;-85
2024/01/10 12:21:23;;;;;;;20.23;8.10;;;;;;;7.60;35.43;69365.06;5325257;33;33706;-85
2024/01/10 12:24:30;;;;;;;15.70;7.85;;;;;;;8.72;33.45;69490.03;5325096;33;33858;-85
2024/01/10 12:27:33;;;;;;;20.40;9.80;;;;;;;9.37;32.46;69561.06;5324610;33;34011;-85
2024/01/10 12:30:39;;;;;;;18.80;9.07;;;;;;;9.54;32.19;69582.91;5348727;33;34207;-84
2024/01/10 12:33:42;;;;;;;19.02;9.23;;;;;;;10.26;31.82;69664.78;5329533;33;33438;-85
2024/01/10 12:36:46;;;;;;;14.10;8.70;;;;;;;10.95;30.29;69740.63;5319887;33;34472;-85
2024/01/10 12:39:50;;;;;;;17.35;8.68;;;;;;;11.38;30.68;69792.13;5328878;33;34673;-85
2024/01/10 12:43:04;;;;;;;20.52;9.40;;;;;;;11.83;29.21;69840.06;5338403;33;34401;-85
2024/01/10 12:46:12;;;;;;;18.08;9.82;;;;;;;12.56;28.12;69926.56;5326131;33;35468;-90
2024/01/10 12:49:15;;;;;;;16.40;8.85;;;;;;;12.76;28.09;69946.59;5329558;33;34093;-86
2024/01/10 12:52:21;;;;;;;20.17;8.48;;;;;;;14.25;25.88;70121.53;5344158;33;34471;-85
2024/01/10 12:55:30;;;;;;;21.50;9.60;;;;;;;15.50;24.54;70263.88;5344098;33;33412;-85
2024/01/10 12:58:35;;;;;;;26.17;10.82;;;;;;;15.95;23.32;70310.47;5331847;33;33764;-86
2024/01/10 13:01:38;;;;;;;17.60;10.10;;;;;;;15.91;23.64;70311.16;5348999;33;33806;-86
2024/01/10 13:04:44;;;;;;;15.90;9.38;;;;;;;16.32;23.11;70355.78;5343858;33;34033;-85
2024/01/10 13:07:47;;;;;;;18.65;9.93;;;;;;;14.67;25.32;70167.25;5329074;33;34802;-86
2024/01/10 13:10:50;;;;;;;18.02;10.20;;;;;;;14.87;24.25;70192.13;5344403;33;33687;-85
2024/01/10 13:13:53;;;;;;;19.75;8.98;;;;;;;13.09;25.73;69984.44;5326295;33;33689;-86
2024/01/10 13:16:56;;;;;;;17.73;9.38;;;;;;;11.67;27.47;69827.97;5313118;33;34588;-85
2024/01/10 13:20:05;;;;;;;21.08;10.63;;;;;;;9.73;29.91;69604.97;5326050;33;33783;-86
2024/01/10 13:23:08;;;;;;;20.10;10.27;;;;;;;7.26;33.66;69324.16;5325960;33;34321;-85
2024/01/10 13:26:11;;;;;;;18.80;9.32;;;;;;;5.74;36.88;69146.25;5342286;33;33724;-85
2024/01/10 13:29:14;;;;;;;15.35;8.98;;;;;;;4.93;40.24;69060.13;5322199;33;33962;-84
2024/01/10 13:32:18;;;;;;;18.30;8.88;;;;;;;4.35;41.02;68994.78;5343273;33;34638;-85
2024/01/10 13:35:22;;;;;;;13.48;8.15;;;;;;;3.89;42.02;68940.16;5343383;33;33927;-85
2024/01/10 13:38:26;;;;;;;17.00;8.70;;;;;;;3.58;43.64;68905.47;5330249;33;33759;-85
2024/01/10 13:41:29;;;;;;;14.25;8.35;;;;;;;3.50;44.14;68895.66;5329168;33;33500;-85
2024/01/10 13:44:32;;;;;;;16.00;7.70;;;;;;;3.05;43.78;68844.84;5342553;33;34819;-85
2024/01/10 13:47:35;;;;;;;21.50;8.40;;;;;;;2.73;44.32;68812.28;5337788;33;34147;-85
2024/01/10 13:50:38;;;;;;;14.23;7.57;;;;;;;2.60;45.67;68796.69;5314207;33;33796;-85
2024/01/10 13:53:41;;;;;;;20.83;8.95;;;;;;;2.49;45.77;68784.59;5334028;33;33452;-85
2024/01/10 13:56:45;;;;;;;16.37;7.90;;;;;;;2.32;46.76;68765.53;5340485;33;33289;-85
2024/01/10 13:59:49;;;;;;;15.88;7.97;;;;;;;2.14;48.54;68740.06;5342880;33;33564;-85
2024/01/10 14:02:59;;;;;;;17.48;8.52;;;;;;;1.89;51.21;68716.50;5322585;33;33751;-85
2024/01/10 14:06:03;;;;;;;21.10;7.95;;;;;;;1.80;49.54;68706.69;5338255;33;34003;-85
2024/01/10 14:09:09;;;;;;;17.48;7.53;;;;;;;1.69;50.39;68691.38;5342293;33;33603;-84
2024/01/10 14:12:13;;;;;;;12.55;6.43;;;;;;;1.55;49.68;68673.16;5331833;33;33921;-85
2024/01/10 14:15:16;;;;;;;13.38;7.30;;;;;;;1.50;50.33;68670.06;5345116;33;33973;-85
2024/01/10 14:18:21;;;;;;;12.18;7.05;;;;;;;1.66;50.05;68688.50;5345067;33;33532;-85
2024/01/10 14:21:24;;;;;;;17.20;7.47;;;;;;;1.55;49.98;68676.41;5350574;33;33839;-84
2024/01/10 14:24:27;;;;;;;16.27;7.45;;;;;;;1.30;50.66;68644.94;5341430;33;34733;-84
2024/01/10 14:27:31;;;;;;;14.45;7.12;;;;;;;1.15;50.96;68630.84;5345811;33;34704;-83
2024/01/10 14:30:35;;;;;;;14.43;7.53;;;;;;;1.01;51.29;68614.72;5341510;33;34083;-86
2024/01/10 14:33:37;;;;;;;13.27;6.80;;;;;;;0.90;54.93;68602.59;5342999;33;34141;-87
2024/01/10 14:36:41;;;;;;;15.45;7.05;;;;;;;0.86;54.07;68595.94;5341849;33;33823;-88
2024/01/10 14:39:44;;;;;;;12.43;6.93;;;;;;;0.79;53.15;68584.69;5342129;33;33782;-88
2024/01/10 14:42:48;;;;;;;10.85;7.75;;;;;;;0.66;53.08;68576.09;5341775;33;33892;-84
2024/01/10 14:45:51;;;;;;;10.60;5.87;;;;;;;0.58;54.06;68561.06;5330378;33;33735;-84
2024/01/10 14:48:54;;;;;;;14.13;7.25;;;;;;;0.58;55.49;68566.88;5343326;33;33910;-84
2024/01/10 14:51:58;;;;;;;13.98;7.72;;;;;;;0.42;56.79;68546.41;5344553;33;35484;-83
2024/01/10 14:55:01;;;;;;;14.55;7.07;;;;;;;0.52;57.68;68556.78;5332238;33;34460;-84
2024/01/10 14:58:04;;;;;;;14.38;7.55;;;;;;;0.43;56.75;68550.19;5343438;33;33769;-83
2024/01/10 15:01:09;;;;;;;16.62;7.35;;;;;;;0.31;60.79;68536.38;5344165;33;33719;-84
2024/01/10 15:04:13;;;;;;;17.08;7.62;;;;;;;0.18;63.66;68518.78;5343689;33;33982;-84
2024/01/10 15:07:17;;;;;;;17.15;8.00;;;;;;;0.03;63.51;68504.13;5342381;33;33890;-84
2024/01/10 15:10:20;;;;;;;20.52;9.40;;;;;;;-0.03;65.40;68497.78;5352282;33;33916;-84
2024/01/10 15:13:23;;;;;;;18.60;9.57;;;;;;;-0.17;70.71;68479.06;5326246;33;34206;-84
2024/01/10 15:16:26;;;;;;;20.55;8.18;;;;;;;-0.25;68.40;68473.06;5338321;33;34398;-84
2024/01/10 15:19:33;;;;;;;22.23;9.98;;;;;;;-0.29;68.23;68465.84;5356830;33;35078;-85
2024/01/10 15:22:38;;;;;;;18.35;9.10;;;;;;;-0.38;72.12;68458.66;5347710;33;33791;-84
2024/01/10 15:25:41;;;;;;;21.17;9.80;;;;;;;-0.58;71.98;68433.59;5333440;33;34572;-83
2024/01/10 15:28:46;;;;;;;17.33;9.85;;;;;;;-0.69;72.44;68421.50;5327484;33;32827;-84
2024/01/10 15:31:49;;;;;;;25.25;10.68;;;;;;;-0.82;74.61;68406.56;5321190;33;260756;-83
2024/01/10 15:34:52;;;;;;;16.85;8.52;;;;;;;-0.92;77.10;68398.25;5341913;33;34102;-84
2024/01/10 15:37:55;;;;;;;22.80;9.63;;;;;;;-0.83;75.62;68405.41;5341913;33;33807;-84
2024/01/10 15:41:00;;;;;;;20.05;10.23;;;;;;;-0.73;76.27;68422.16;5328994;33;34835;-84
2024/01/10 15:44:03;;;;;;;19.17;9.38;;;;;;;-0.88;75.70;68457.31;5340593;33;33866;-84
2024/01/10 15:47:06;;;;;;;21.67;10.25;;;;;;;-0.78;73.98;68413.22;5343154;33;35168;-84
2024/01/10 15:50:11;;;;;;;22.87;11.02;;;;;;;-0.86;78.43;68401.97;5342270;33;33856;-84
2024/01/10 15:53:16;;;;;;;21.23;10.27;;;;;;;-0.95;81.58;68392.19;5329259;33;33703;-84
2024/01/10 15:56:21;;;;;;;22.90;10.65;;;;;;;-0.81;81.06;68407.13;5316864;33;33920;-84
2024/01/10 15:59:24;;;;;;;20.02;10.52;;;;;;;-1.00;79.56;68386.41;5317104;33;33862;-84
2024/01/10 16:02:30;;;;;;;20.17;10.32;;;;;;;-1.07;81.17;68381.00;5328828;33;34040;-83
2024/01/10 16:05:33;;;;;;;27.08;11.38;;;;;;;-0.99;79.41;68387.00;5329499;33;33765;-84
2024/01/10 16:08:37;;;;;;;17.00;8.88;;;;;;;-1.05;81.65;68380.09;5328850;33;33488;-84
2024/01/10 16:11:44;;;;;;;21.55;9.90;;;;;;;-1.22;82.53;68361.13;5341976;33;33927;-84
2024/01/10 16:14:46;;;;;;;22.30;9.88;;;;;;;-1.32;83.18;68350.19;5328851;33;33880;-84
2024/01/10 16:17:50;;;;;;;24.77;9.13;;;;;;;-1.45;84.40;68337.88;5321011;33;33717;-84
2024/01/10 16:20:53;;;;;;;18.12;9.38;;;;;;;-1.54;85.18;68327.53;5312966;33;33940;-84
2024/01/10 16:23:56;;;;;;;18.45;10.15;;;;;;;-1.55;85.84;68326.97;5314327;33;34374;-84
2024/01/10 16:26:59;;;;;;;21.42;10.02;;;;;;;-1.57;88.10;68321.47;5326571;33;34427;-83
2024/01/10 16:30:02;;;;;;;17.00;9.00;;;;;;;-1.63;91.21;68315.72;5327109;33;33748;-84
2024/01/10 16:33:05;;;;;;;24.15;10.02;;;;;;;-1.67;92.11;68315.78;5326677;33;34146;-84
2024/01/10 16:36:10;;;;;;;20.27;10.10;;;;;;;-1.69;92.43;68308.81;5315618;33;34459;-86
2024/01/10 16:39:13;;;;;;;17.27;8.73;;;;;;;-1.62;92.51;68373.91;5317145;33;34038;-87
2024/01/10 16:42:16;;;;;;;20.60;11.07;;;;;;;-1.67;94.32;68310.53;5317836;33;33989;-87
2024/01/10 16:45:20;;;;;;;27.42;11.68;;;;;;;-1.64;96.31;68314.56;5307956;33;34035;-84
2024/01/10 16:48:25;;;;;;;25.77;12.50;;;;;;;-1.70;98.24;68310.28;5318719;33;33886;-83
2024/01/10 16:51:29;;;;;;;21.87;9.50;;;;;;;-1.76;98.68;68300.19;5331509;33;34338;-83
